LSZS/SMV METAR and TAF weather

Enter ICAO airport designator
Station Type Date Time Source
LSZS METAR 2020/03/29 21:20 UTC NOAA

LSZS 292120Z AUTO 03008KT 9999 FEW075 SCT085 01/M03 Q1012


Station Type Date Time Source
LSZS Decoded METAR 2020/03/29 21:20 UTC NOAA

Station name not available
Mar 29, 2020 - 05:20 PM EDT / 2020.03.29 2120 UTC
Wind: from the NNE (030 degrees) at 9 MPH (8 KT):0
Visibility: greater than 7 mile(s):0
Sky conditions: partly cloudy
Temperature: 33 F (1 C)
Windchill: 24 F (-4 C):1
Dew Point: 26 F (-3 C)
Relative Humidity: 74%
Pressure (altimeter): 29.88 in. Hg (1012 hPa)
ob: LSZS 292120Z AUTO 03008KT 9999 FEW075 SCT085 01/M03 Q1012
cycle: 21

Station Type Date Time Source
LSZS TAF 2014/12/22 20:03 UTC NOAA

TAF
AMD LSZS 222054Z 2220/2224 CNL

Example: see airport list